MiSS Caroline — WDH3754 — position and weather

sailwx.info

Track history (hours):
 
Tides and Currents Weather Stations Pressure Air Temp Water Temp Dewpoint Dewpoint Depression Visibility Wind Speed Wind Dir Waves Ship Positions

MiSS Caroline

Owner: Central Boat Rentals, Inc, Berwick, LA. More information available from US FCC via Universal Licensing System and Coast Guard Vessel Documentation Center.

Last reported at 2017-Sep-15 02:41 UTC. Time now 2017-Sep-19 15:24 UTC.
Position N 29°56' W 093°02'.

Length 22 m; draft 2.7 m.

Type: Tug. MMSI: 367610550.

Date/timePositionNaut miles runAvg speedWind from/ knotsBaromVisibWave heightAir tempDewpointWater temp
2017-Sep-15 02:41N 29°56' W 093°02'1 4.8
2017-Sep-15 02:30N 29°56' W 093°03'2 4.3
2017-Sep-15 02:01N 29°56' W 093°05'2 4.0
2017-Sep-15 01:31N 29°56' W 093°08'2 4.4
2017-Sep-15 01:01N 29°57' W 093°10'2 4.6
2017-Sep-15 00:31N 29°58' W 093°12'2 4.5
2017-Sep-15 00:01N 30°00' W 093°13'2 3.8
2017-Sep-14 23:30N 30°02' W 093°14'2 3.8
2017-Sep-14 23:01N 30°03' W 093°16'2 4.8
2017-Sep-14 22:31N 30°05' W 093°17'1 2.3
2017-Sep-14 22:01N 30°06' W 093°18'0 0.2
2017-Sep-14 21:31N 30°06' W 093°18'2 3.8
2017-Sep-14 21:01N 30°05' W 093°20'2 4.4
2017-Sep-14 20:31N 30°04' W 093°22'2 4.7
2017-Sep-14 20:01N 30°04' W 093°25'3 5.8
2017-Sep-14 19:31N 30°04' W 093°28'3 5.6
2017-Sep-14 19:01N 30°04' W 093°31'3 5.7
2017-Sep-14 18:30N 30°04' W 093°35'3 5.8
2017-Sep-14 18:00N 30°04' W 093°38'3 5.9
2017-Sep-14 17:30N 30°03' W 093°41'  
2017-Sep-10 03:22N 29°58' W 093°52'0 0.0
2017-Sep-09 06:49N 29°58' W 093°52'15 0.5
2017-Sep-07 22:33N 30°04' W 093°36'1 5.2
2017-Sep-07 22:23N 30°04' W 093°35'2 4.8
2017-Sep-07 22:00N 30°04' W 093°33'2 4.3
2017-Sep-07 21:31N 30°04' W 093°31'2 4.0
2017-Sep-07 21:00N 30°04' W 093°28'2 3.4
2017-Sep-07 20:31N 30°04' W 093°26'2 3.8
2017-Sep-07 20:00N 30°04' W 093°24'1 1.8
2017-Sep-07 19:31N 30°04' W 093°23'0 0.0
2017-Sep-07 19:01N 30°04' W 093°23'2 3.5
2017-Sep-07 18:31N 30°04' W 093°21'0 1.0
2017-Sep-07 18:01N 30°04' W 093°21'0 0.0
2017-Sep-07 17:31N 30°04' W 093°21'0 0.0
2017-Sep-07 17:01N 30°04' W 093°21'0 0.0
2017-Sep-07 16:31N 30°04' W 093°21'0 0.0
2017-Sep-07 16:00N 30°04' W 093°21'0 0.0
2017-Sep-07 15:31N 30°04' W 093°21'0 0.0
2017-Sep-07 15:01N 30°04' W 093°21'0 0.3
2017-Sep-07 14:31N 30°04' W 093°20'0 0.0
2017-Sep-07 12:08N 30°04' W 093°20'0 0.0
2017-Sep-07 11:59N 30°04' W 093°20'0 0.0
2017-Sep-07 11:30N 30°04' W 093°20'0 0.0
2017-Sep-07 11:01N 30°04' W 093°20'0 0.0
2017-Sep-07 10:29N 30°04' W 093°20'0 0.0
2017-Sep-07 10:00N 30°04' W 093°20'0 0.0
2017-Sep-07 09:31N 30°04' W 093°20'0 0.0
2017-Sep-07 09:01N 30°04' W 093°20'0 0.0
2017-Sep-07 08:31N 30°04' W 093°20'0 0.0
2017-Sep-07 08:00N 30°04' W 093°20'0 0.0
2017-Sep-07 07:31N 30°04' W 093°20'0 0.0
2017-Sep-07 07:00N 30°04' W 093°20'0 0.0
2017-Sep-07 06:31N 30°04' W 093°20'0 0.0
2017-Sep-07 06:01N 30°04' W 093°20'0 0.0
2017-Sep-07 05:31N 30°04' W 093°20'0 0.0
2017-Sep-07 05:01N 30°04' W 093°20'0 0.0
2017-Sep-07 04:30N 30°04' W 093°20'0 0.0
2017-Sep-07 04:00N 30°04' W 093°20'0 0.0
2017-Sep-07 03:31N 30°04' W 093°20'0 0.0
2017-Sep-07 03:01N 30°04' W 093°20'0 0.0
2017-Sep-07 02:30N 30°04' W 093°20'0 0.0
2017-Sep-07 02:00N 30°04' W 093°20'0 0.0
2017-Sep-07 01:31N 30°04' W 093°20'0 0.0
2017-Sep-07 01:01N 30°04' W 093°20'0 0.0
2017-Sep-07 00:31N 30°04' W 093°20'0 0.0
2017-Sep-07 00:00N 30°04' W 093°20'0 0.0
2017-Sep-06 23:31N 30°04' W 093°20'0 0.0
2017-Sep-06 23:01N 30°04' W 093°20'0 0.0
2017-Sep-06 22:31N 30°04' W 093°20'0 0.0
2017-Sep-06 22:01N 30°04' W 093°20'0 0.0
2017-Sep-06 21:31N 30°04' W 093°20'0 0.0
2017-Sep-06 21:01N 30°04' W 093°20'0 0.0
2017-Sep-06 20:30N 30°04' W 093°20'0 0.0
2017-Sep-06 20:01N 30°04' W 093°20'0 0.0
2017-Sep-06 19:31N 30°04' W 093°20'0 0.0
2017-Sep-06 19:01N 30°04' W 093°20'0 0.0
2017-Sep-06 18:31N 30°04' W 093°20'0 0.0
2017-Sep-06 18:01N 30°04' W 093°20'0 0.0
2017-Sep-06 17:31N 30°04' W 093°20'0 0.0
2017-Sep-06 17:01N 30°04' W 093°20'0 0.0
2017-Sep-06 16:31N 30°04' W 093°20'0 0.0
2017-Sep-06 16:01N 30°04' W 093°20'0 0.0
2017-Sep-06 15:30N 30°04' W 093°20'0 0.0
2017-Sep-06 15:01N 30°04' W 093°20'0 0.0
2017-Sep-06 14:31N 30°04' W 093°20'0 0.0
2017-Sep-06 14:01N 30°04' W 093°20'0 0.0
2017-Sep-06 13:31N 30°04' W 093°20'0 0.0
2017-Sep-06 13:01N 30°04' W 093°20'0 0.0
2017-Sep-06 12:31N 30°04' W 093°20'0 0.0
2017-Sep-06 12:01N 30°04' W 093°20'0 0.0
2017-Sep-06 11:31N 30°04' W 093°20'0 0.0
2017-Sep-06 11:01N 30°04' W 093°20'0 0.0
2017-Sep-06 10:31N 30°04' W 093°20'0 0.0
2017-Sep-06 10:01N 30°04' W 093°20'0 0.0
2017-Sep-06 09:31N 30°04' W 093°20'0 0.0
2017-Sep-06 09:00N 30°04' W 093°20'0 0.0
2017-Sep-06 08:31N 30°04' W 093°20'0 0.0
2017-Sep-06 08:01N 30°04' W 093°20'0 0.0
2017-Sep-06 07:31N 30°04' W 093°20'0 0.0
2017-Sep-06 07:01N 30°04' W 093°20'0 0.0
2017-Sep-06 06:31N 30°04' W 093°20'0 0.0
2017-Sep-06 06:01N 30°04' W 093°20'0 0.0
2017-Sep-06 05:31N 30°04' W 093°20'0 0.0
2017-Sep-06 05:01N 30°04' W 093°20'0 0.0
2017-Sep-06 04:31N 30°04' W 093°20'0 0.0
2017-Sep-06 04:01N 30°04' W 093°20'0 0.0
2017-Sep-06 03:31N 30°04' W 093°20'0 0.0
2017-Sep-06 03:01N 30°04' W 093°20'0 0.0
2017-Sep-06 02:31N 30°04' W 093°20'0 0.0
2017-Sep-06 02:01N 30°04' W 093°20'0 0.0
2017-Sep-06 01:30N 30°04' W 093°20'0 0.0
2017-Sep-06 01:01N 30°04' W 093°20'0 0.0
2017-Sep-06 00:31N 30°04' W 093°20'1 1.1
2017-Sep-06 00:01N 30°05' W 093°20'2 3.1
2017-Sep-05 23:31N 30°06' W 093°19'0 0.3
2017-Sep-05 23:01N 30°06' W 093°19'0 0.0
2017-Sep-05 22:31N 30°06' W 093°19'0 0.0
2017-Sep-05 22:01N 30°06' W 093°19'0 0.0
2017-Sep-05 21:31N 30°06' W 093°19'0 0.0
2017-Sep-05 21:01N 30°06' W 093°19'0 0.0
2017-Sep-05 20:31N 30°06' W 093°19'0 0.0
2017-Sep-05 20:00N 30°06' W 093°19'0 0.0
2017-Sep-05 19:31N 30°06' W 093°19'0 0.0
2017-Sep-05 19:01N 30°06' W 093°19'0 0.0
2017-Sep-05 18:31N 30°06' W 093°19'0 0.0
2017-Sep-05 18:01N 30°06' W 093°19'0 0.0
2017-Sep-05 17:31N 30°06' W 093°19'0 0.0
2017-Sep-05 17:01N 30°06' W 093°19'0 0.0
2017-Sep-05 16:31N 30°06' W 093°19'0 0.0
2017-Sep-05 16:00N 30°06' W 093°19'0 0.1
2017-Sep-05 15:31N 30°06' W 093°19'1 3.0
2017-Sep-05 15:01N 30°05' W 093°18'3 5.2
2017-Sep-05 14:31N 30°03' W 093°16'3 5.7
2017-Sep-05 14:01N 30°01' W 093°14'3 6.2
2017-Sep-05 13:31N 29°58' W 093°12'4 7.1
2017-Sep-05 13:01N 29°56' W 093°09'4 7.6
2017-Sep-05 12:30N 29°56' W 093°04'37 6.7
2017-Sep-05 06:54N 29°51' W 092°21'2 4.4
2017-Sep-05 06:30N 29°50' W 092°19'3 5.1
2017-Sep-05 06:01N 29°49' W 092°17'3 6.2
2017-Sep-05 05:31N 29°48' W 092°14'3 5.0
2017-Sep-05 05:01N 29°47' W 092°11'2 4.1
2017-Sep-05 04:30N 29°47' W 092°09'3 6.6
2017-Sep-05 04:01N 29°48' W 092°05'3 6.5
2017-Sep-05 03:31N 29°49' W 092°02'  
Track history (hours):
 
Tides and Currents Weather Stations Pressure Air Temp Water Temp Dewpoint Dewpoint Depression Visibility Wind Speed Wind Dir Waves Ship Positions

MiSS Caroline

Owner: Central Boat Rentals, Inc, Berwick, LA. More information available from US FCC via Universal Licensing System and Coast Guard Vessel Documentation Center.

Last reported at 2017-Sep-15 02:41 UTC. Time now 2017-Sep-19 15:24 UTC.
Position N 29°56' W 093°02'.

Length 22 m; draft 2.7 m.

Type: Tug. MMSI: 367610550.

Date/timePositionNaut miles runAvg speedWind from/ knotsBaromVisibWave heightAir tempDewpointWater temp
2017-Sep-15 02:41N 29°56' W 093°02'1 4.8
2017-Sep-15 02:30N 29°56' W 093°03'2 4.3
2017-Sep-15 02:01N 29°56' W 093°05'2 4.0
2017-Sep-15 01:31N 29°56' W 093°08'2 4.4
2017-Sep-15 01:01N 29°57' W 093°10'2 4.6
2017-Sep-15 00:31N 29°58' W 093°12'2 4.5
2017-Sep-15 00:01N 30°00' W 093°13'2 3.8
2017-Sep-14 23:30N 30°02' W 093°14'2 3.8
2017-Sep-14 23:01N 30°03' W 093°16'2 4.8
2017-Sep-14 22:31N 30°05' W 093°17'1 2.3
2017-Sep-14 22:01N 30°06' W 093°18'0 0.2
2017-Sep-14 21:31N 30°06' W 093°18'2 3.8
2017-Sep-14 21:01N 30°05' W 093°20'2 4.4
2017-Sep-14 20:31N 30°04' W 093°22'2 4.7
2017-Sep-14 20:01N 30°04' W 093°25'3 5.8
2017-Sep-14 19:31N 30°04' W 093°28'3 5.6
2017-Sep-14 19:01N 30°04' W 093°31'3 5.7
2017-Sep-14 18:30N 30°04' W 093°35'3 5.8
2017-Sep-14 18:00N 30°04' W 093°38'3 5.9
2017-Sep-14 17:30N 30°03' W 093°41'  
2017-Sep-10 03:22N 29°58' W 093°52'0 0.0
2017-Sep-09 06:49N 29°58' W 093°52'15 0.5
2017-Sep-07 22:33N 30°04' W 093°36'1 5.2
2017-Sep-07 22:23N 30°04' W 093°35'2 4.8
2017-Sep-07 22:00N 30°04' W 093°33'2 4.3
2017-Sep-07 21:31N 30°04' W 093°31'2 4.0
2017-Sep-07 21:00N 30°04' W 093°28'2 3.4
2017-Sep-07 20:31N 30°04' W 093°26'2 3.8
2017-Sep-07 20:00N 30°04' W 093°24'1 1.8
2017-Sep-07 19:31N 30°04' W 093°23'0 0.0
2017-Sep-07 19:01N 30°04' W 093°23'2 3.5
2017-Sep-07 18:31N 30°04' W 093°21'0 1.0
2017-Sep-07 18:01N 30°04' W 093°21'0 0.0
2017-Sep-07 17:31N 30°04' W 093°21'0 0.0
2017-Sep-07 17:01N 30°04' W 093°21'0 0.0
2017-Sep-07 16:31N 30°04' W 093°21'0 0.0
2017-Sep-07 16:00N 30°04' W 093°21'0 0.0
2017-Sep-07 15:31N 30°04' W 093°21'0 0.0
2017-Sep-07 15:01N 30°04' W 093°21'0 0.3
2017-Sep-07 14:31N 30°04' W 093°20'0 0.0
2017-Sep-07 12:08N 30°04' W 093°20'0 0.0
2017-Sep-07 11:59N 30°04' W 093°20'0 0.0
2017-Sep-07 11:30N 30°04' W 093°20'0 0.0
2017-Sep-07 11:01N 30°04' W 093°20'0 0.0
2017-Sep-07 10:29N 30°04' W 093°20'0 0.0
2017-Sep-07 10:00N 30°04' W 093°20'0 0.0
2017-Sep-07 09:31N 30°04' W 093°20'0 0.0
2017-Sep-07 09:01N 30°04' W 093°20'0 0.0
2017-Sep-07 08:31N 30°04' W 093°20'0 0.0
2017-Sep-07 08:00N 30°04' W 093°20'0 0.0
2017-Sep-07 07:31N 30°04' W 093°20'0 0.0
2017-Sep-07 07:00N 30°04' W 093°20'0 0.0
2017-Sep-07 06:31N 30°04' W 093°20'0 0.0
2017-Sep-07 06:01N 30°04' W 093°20'0 0.0
2017-Sep-07 05:31N 30°04' W 093°20'0 0.0
2017-Sep-07 05:01N 30°04' W 093°20'0 0.0
2017-Sep-07 04:30N 30°04' W 093°20'0 0.0
2017-Sep-07 04:00N 30°04' W 093°20'0 0.0
2017-Sep-07 03:31N 30°04' W 093°20'0 0.0
2017-Sep-07 03:01N 30°04' W 093°20'0 0.0
2017-Sep-07 02:30N 30°04' W 093°20'0 0.0
2017-Sep-07 02:00N 30°04' W 093°20'0 0.0
2017-Sep-07 01:31N 30°04' W 093°20'0 0.0
2017-Sep-07 01:01N 30°04' W 093°20'0 0.0
2017-Sep-07 00:31N 30°04' W 093°20'0 0.0
2017-Sep-07 00:00N 30°04' W 093°20'0 0.0
2017-Sep-06 23:31N 30°04' W 093°20'0 0.0
2017-Sep-06 23:01N 30°04' W 093°20'0 0.0
2017-Sep-06 22:31N 30°04' W 093°20'0 0.0
2017-Sep-06 22:01N 30°04' W 093°20'0 0.0
2017-Sep-06 21:31N 30°04' W 093°20'0 0.0
2017-Sep-06 21:01N 30°04' W 093°20'0 0.0
2017-Sep-06 20:30N 30°04' W 093°20'0 0.0
2017-Sep-06 20:01N 30°04' W 093°20'0 0.0
2017-Sep-06 19:31N 30°04' W 093°20'0 0.0
2017-Sep-06 19:01N 30°04' W 093°20'0 0.0
2017-Sep-06 18:31N 30°04' W 093°20'0 0.0
2017-Sep-06 18:01N 30°04' W 093°20'0 0.0
2017-Sep-06 17:31N 30°04' W 093°20'0 0.0
2017-Sep-06 17:01N 30°04' W 093°20'0 0.0
2017-Sep-06 16:31N 30°04' W 093°20'0 0.0
2017-Sep-06 16:01N 30°04' W 093°20'0 0.0
2017-Sep-06 15:30N 30°04' W 093°20'0 0.0
2017-Sep-06 15:01N 30°04' W 093°20'0 0.0
2017-Sep-06 14:31N 30°04' W 093°20'0 0.0
2017-Sep-06 14:01N 30°04' W 093°20'0 0.0
2017-Sep-06 13:31N 30°04' W 093°20'0 0.0
2017-Sep-06 13:01N 30°04' W 093°20'0 0.0
2017-Sep-06 12:31N 30°04' W 093°20'0 0.0
2017-Sep-06 12:01N 30°04' W 093°20'0 0.0
2017-Sep-06 11:31N 30°04' W 093°20'0 0.0
2017-Sep-06 11:01N 30°04' W 093°20'0 0.0
2017-Sep-06 10:31N 30°04' W 093°20'0 0.0
2017-Sep-06 10:01N 30°04' W 093°20'0 0.0
2017-Sep-06 09:31N 30°04' W 093°20'0 0.0
2017-Sep-06 09:00N 30°04' W 093°20'0 0.0
2017-Sep-06 08:31N 30°04' W 093°20'0 0.0
2017-Sep-06 08:01N 30°04' W 093°20'0 0.0
2017-Sep-06 07:31N 30°04' W 093°20'0 0.0
2017-Sep-06 07:01N 30°04' W 093°20'0 0.0
2017-Sep-06 06:31N 30°04' W 093°20'0 0.0
2017-Sep-06 06:01N 30°04' W 093°20'0 0.0
2017-Sep-06 05:31N 30°04' W 093°20'0 0.0
2017-Sep-06 05:01N 30°04' W 093°20'0 0.0
2017-Sep-06 04:31N 30°04' W 093°20'0 0.0
2017-Sep-06 04:01N 30°04' W 093°20'0 0.0
2017-Sep-06 03:31N 30°04' W 093°20'0 0.0
2017-Sep-06 03:01N 30°04' W 093°20'0 0.0
2017-Sep-06 02:31N 30°04' W 093°20'0 0.0
2017-Sep-06 02:01N 30°04' W 093°20'0 0.0
2017-Sep-06 01:30N 30°04' W 093°20'0 0.0
2017-Sep-06 01:01N 30°04' W 093°20'0 0.0
2017-Sep-06 00:31N 30°04' W 093°20'1 1.1
2017-Sep-06 00:01N 30°05' W 093°20'2 3.1
2017-Sep-05 23:31N 30°06' W 093°19'0 0.3
2017-Sep-05 23:01N 30°06' W 093°19'0 0.0
2017-Sep-05 22:31N 30°06' W 093°19'0 0.0
2017-Sep-05 22:01N 30°06' W 093°19'0 0.0
2017-Sep-05 21:31N 30°06' W 093°19'0 0.0
2017-Sep-05 21:01N 30°06' W 093°19'0 0.0
2017-Sep-05 20:31N 30°06' W 093°19'0 0.0
2017-Sep-05 20:00N 30°06' W 093°19'0 0.0
2017-Sep-05 19:31N 30°06' W 093°19'0 0.0
2017-Sep-05 19:01N 30°06' W 093°19'0 0.0
2017-Sep-05 18:31N 30°06' W 093°19'0 0.0
2017-Sep-05 18:01N 30°06' W 093°19'0 0.0
2017-Sep-05 17:31N 30°06' W 093°19'0 0.0
2017-Sep-05 17:01N 30°06' W 093°19'0 0.0
2017-Sep-05 16:31N 30°06' W 093°19'0 0.0
2017-Sep-05 16:00N 30°06' W 093°19'0 0.1
2017-Sep-05 15:31N 30°06' W 093°19'1 3.0
2017-Sep-05 15:01N 30°05' W 093°18'3 5.2
2017-Sep-05 14:31N 30°03' W 093°16'3 5.7
2017-Sep-05 14:01N 30°01' W 093°14'3 6.2
2017-Sep-05 13:31N 29°58' W 093°12'4 7.1
2017-Sep-05 13:01N 29°56' W 093°09'4 7.6
2017-Sep-05 12:30N 29°56' W 093°04'37 6.7
2017-Sep-05 06:54N 29°51' W 092°21'2 4.4
2017-Sep-05 06:30N 29°50' W 092°19'3 5.1
2017-Sep-05 06:01N 29°49' W 092°17'3 6.2
2017-Sep-05 05:31N 29°48' W 092°14'3 5.0
2017-Sep-05 05:01N 29°47' W 092°11'2 4.1
2017-Sep-05 04:30N 29°47' W 092°09'3 6.6
2017-Sep-05 04:01N 29°48' W 092°05'3 6.5
2017-Sep-05 03:31N 29°49' W 092°02'  

Dump ship's entire track history